Time,TemperatureF,DewpointF,PressureIn,WindDirection,WindDirectionDegrees,WindSpeedMPH,WindSpeedGustMPH,Humidity,HourlyPrecipIn,Conditions,Clouds,dailyrainin,SoftwareType,DateUTC
2013-02-11 00:11:00,45.7,45.2,29.76,ENE,67,0.0,-999.0,98,-99.99,,,0.00,Acu-Link.com,2013-02-11 05:11:00,
2013-02-11 00:26:00,45.7,45.2,29.76,East,90,0.0,-999.0,98,-99.99,,,0.00,Acu-Link.com,2013-02-11 05:26:00,
2013-02-11 00:42:00,45.7,45.2,29.76,ESE,112,2.7,-999.0,98,-99.99,,,0.00,Acu-Link.com,2013-02-11 05:42:00,
2013-02-11 00:57:00,45.7,45.2,29.76,East,90,0.0,-999.0,98,-99.99,,,0.00,Acu-Link.com,2013-02-11 05:57:00,
2013-02-11 01:12:00,45.7,45.2,29.74,East,90,0.0,-999.0,98,-99.99,,,0.00,Acu-Link.com,2013-02-11 06:12:00,
2013-02-11 01:28:00,45.7,45.2,29.73,East,90,1.1,-999.0,98,-99.99,,,0.00,Acu-Link.com,2013-02-11 06:28:00,
2013-02-11 01:43:00,45.7,45.2,29.74,West,270,1.7,-999.0,98,-99.99,,,0.00,Acu-Link.com,2013-02-11 06:43:00,
2013-02-11 01:58:00,45.7,45.2,29.75,WNW,292,0.0,-999.0,98,-99.99,,,0.00,Acu-Link.com,2013-02-11 06:58:00,
2013-02-11 02:14:00,45.9,45.4,29.75,SE,135,0.0,-999.0,98,-99.99,,,0.00,Acu-Link.com,2013-02-11 07:14:00,
2013-02-11 02:29:00,46.0,45.5,29.75,ESE,112,0.0,-999.0,98,-99.99,,,0.00,Acu-Link.com,2013-02-11 07:29:00,
2013-02-11 02:44:00,46.0,45.5,29.75,WSW,247,0.0,-999.0,98,-99.99,,,0.00,Acu-Link.com,2013-02-11 07:44:00,
2013-02-11 03:00:00,46.2,45.7,29.76,SSE,157,2.2,-999.0,98,-99.99,,,0.00,Acu-Link.com,2013-02-11 08:00:00,
2013-02-11 03:15:00,46.2,45.7,29.77,SE,135,1.7,-999.0,98,-99.99,,,0.00,Acu-Link.com,2013-02-11 08:15:00,
2013-02-11 03:30:00,46.2,45.7,29.76,SE,135,0.0,-999.0,98,-99.99,,,0.00,Acu-Link.com,2013-02-11 08:30:00,
2013-02-11 03:45:00,46.2,45.7,29.75,ENE,67,1.1,-999.0,98,-99.99,,,0.00,Acu-Link.com,2013-02-11 08:45:00,
2013-02-11 04:01:00,46.2,45.7,29.76,NE,45,0.0,-999.0,98,-99.99,,,0.00,Acu-Link.com,2013-02-11 09:01:00,
2013-02-11 04:17:00,46.2,45.7,29.76,NE,45,0.0,-999.0,98,-99.99,,,0.00,Acu-Link.com,2013-02-11 09:17:00,
2013-02-11 04:32:00,46.2,45.7,29.77,WSW,247,0.0,-999.0,98,-99.99,,,0.00,Acu-Link.com,2013-02-11 09:32:00,
2013-02-11 04:47:00,46.2,45.7,29.77,SW,225,0.0,-999.0,98,-99.99,,,0.00,Acu-Link.com,2013-02-11 09:47:00,
2013-02-11 05:02:00,46.2,45.7,29.75,South,180,0.0,-999.0,98,-99.99,,,0.00,Acu-Link.com,2013-02-11 10:02:00,
2013-02-11 05:17:00,46.2,45.7,29.74,South,180,0.0,-999.0,98,-99.99,,,0.00,Acu-Link.com,2013-02-11 10:17:00,
2013-02-11 05:32:00,46.2,45.7,29.75,West,270,0.0,-999.0,98,-99.99,,,0.01,Acu-Link.com,2013-02-11 10:32:00,
2013-02-11 05:48:00,46.0,45.5,29.75,South,180,0.0,-999.0,98,-99.99,,,0.01,Acu-Link.com,2013-02-11 10:48:00,
2013-02-11 06:03:00,46.0,45.5,29.76,SSE,157,1.1,-999.0,98,-99.99,,,0.01,Acu-Link.com,2013-02-11 11:03:00,
2013-02-11 06:18:00,46.6,46.1,29.76,West,270,0.0,-999.0,98,-99.99,,,0.01,Acu-Link.com,2013-02-11 11:18:00,
2013-02-11 06:33:00,46.8,46.3,29.77,West,270,0.0,-999.0,98,-99.99,,,0.01,Acu-Link.com,2013-02-11 11:33:00,
2013-02-11 06:48:00,47.7,47.2,29.77,SE,135,0.0,-999.0,98,-99.99,,,0.01,Acu-Link.com,2013-02-11 11:48:00,
2013-02-11 07:04:00,48.0,47.5,29.77,SW,225,0.0,-999.0,98,-99.99,,,0.01,Acu-Link.com,2013-02-11 12:04:00,
2013-02-11 07:19:00,48.7,48.2,29.78,SW,225,1.1,-999.0,98,-99.99,,,0.01,Acu-Link.com,2013-02-11 12:19:00,
2013-02-11 07:34:00,48.9,48.4,29.79,SSW,202,0.0,-999.0,98,-99.99,,,0.01,Acu-Link.com,2013-02-11 12:34:00,
2013-02-11 07:49:00,49.6,49.1,29.80,West,270,2.2,-999.0,98,-99.99,,,0.01,Acu-Link.com,2013-02-11 12:49:00,
2013-02-11 08:05:00,50.7,50.2,29.80,SW,225,3.7,-999.0,98,-99.99,,,0.01,Acu-Link.com,2013-02-11 13:05:00,
2013-02-11 08:20:00,51.4,50.9,29.80,South,180,2.2,-999.0,98,-99.99,,,0.01,Acu-Link.com,2013-02-11 13:20:00,
2013-02-11 08:35:00,52.9,52.4,29.81,South,180,1.7,-999.0,98,-99.99,,,0.01,Acu-Link.com,2013-02-11 13:35:00,
2013-02-11 08:50:00,53.2,52.6,29.81,South,180,2.7,-999.0,98,-99.99,,,0.01,Acu-Link.com,2013-02-11 13:50:00,
2013-02-11 09:06:00,53.4,52.8,29.81,South,180,2.2,-999.0,98,-99.99,,,0.01,Acu-Link.com,2013-02-11 14:06:00,
2013-02-11 09:21:00,53.8,53.2,29.81,South,180,5.3,-999.0,98,-99.99,,,0.01,Acu-Link.com,2013-02-11 14:21:00,
2013-02-11 09:36:00,54.1,53.5,29.83,SSW,202,3.2,-999.0,98,-99.99,,,0.01,Acu-Link.com,2013-02-11 14:36:00,
2013-02-11 09:51:00,54.5,53.9,29.82,SSE,157,2.7,-999.0,98,-99.99,,,0.01,Acu-Link.com,2013-02-11 14:51:00,
2013-02-11 10:06:00,54.9,54.3,29.81,SSE,157,6.3,-999.0,98,-99.99,,,0.01,Acu-Link.com,2013-02-11 15:06:00,
2013-02-11 10:22:00,55.9,55.3,29.82,SSW,202,2.7,-999.0,98,-99.99,,,0.01,Acu-Link.com,2013-02-11 15:22:00,
2013-02-11 10:37:00,55.8,55.2,29.84,SW,225,4.7,-999.0,98,-99.99,,,0.01,Acu-Link.com,2013-02-11 15:37:00,
2013-02-11 10:52:00,55.9,55.3,29.84,SSE,157,3.2,-999.0,98,-99.99,,,0.01,Acu-Link.com,2013-02-11 15:52:00,
2013-02-11 11:08:00,56.3,55.7,29.85,SSW,202,3.7,-999.0,98,-99.99,,,0.01,Acu-Link.com,2013-02-11 16:08:00,
2013-02-11 11:23:00,56.8,56.2,29.83,SSW,202,2.7,-999.0,98,-99.99,,,0.01,Acu-Link.com,2013-02-11 16:23:00,
2013-02-11 11:38:00,57.0,56.4,29.82,SSW,202,3.7,-999.0,98,-99.99,,,0.01,Acu-Link.com,2013-02-11 16:38:00,
2013-02-11 11:53:00,57.7,54.5,29.83,SW,225,2.2,-999.0,89,-99.99,,,0.01,Acu-Link.com,2013-02-11 16:53:00,
2013-02-11 12:09:00,57.4,54.5,29.82,SW,225,3.2,-999.0,90,-99.99,,,0.01,Acu-Link.com,2013-02-11 17:09:00,
2013-02-11 12:24:00,57.2,54.0,29.81,NE,45,3.7,-999.0,89,-99.99,,,0.01,Acu-Link.com,2013-02-11 17:24:00,
2013-02-11 12:39:00,57.4,53.6,29.82,SSW,202,3.2,-999.0,87,-99.99,,,0.01,Acu-Link.com,2013-02-11 17:39:00,
2013-02-11 12:54:00,57.7,53.5,29.83,SSW,202,4.2,-999.0,86,-99.99,,,0.01,Acu-Link.com,2013-02-11 17:54:00,
2013-02-11 13:09:00,57.7,52.6,29.85,West,270,3.2,-999.0,83,-99.99,,,0.01,Acu-Link.com,2013-02-11 18:09:00,
2013-02-11 13:24:00,57.7,52.2,29.84,SSE,157,5.8,-999.0,82,-99.99,,,0.01,Acu-Link.com,2013-02-11 18:24:00,
2013-02-11 13:40:00,57.9,51.4,29.83,West,270,6.3,-999.0,79,-99.99,,,0.01,Acu-Link.com,2013-02-11 18:40:00,
2013-02-11 13:55:00,57.6,50.4,29.82,ESE,112,3.7,-999.0,77,-99.99,,,0.01,Acu-Link.com,2013-02-11 18:55:00,
2013-02-11 14:10:00,57.7,50.2,29.82,SW,225,4.7,-999.0,76,-99.99,,,0.01,Acu-Link.com,2013-02-11 19:10:00,
2013-02-11 14:25:00,57.9,49.3,29.81,WSW,247,2.2,-999.0,73,-99.99,,,0.01,Acu-Link.com,2013-02-11 19:25:00,
2013-02-11 14:41:00,57.9,48.2,29.83,SW,225,2.7,-999.0,70,-99.99,,,0.01,Acu-Link.com,2013-02-11 19:41:00,
2013-02-11 14:56:00,58.1,48.4,29.83,SW,225,4.7,-999.0,70,-99.99,,,0.01,Acu-Link.com,2013-02-11 19:56:00,
2013-02-11 15:11:00,58.8,47.5,29.82,WSW,247,4.2,-999.0,66,-99.99,,,0.01,Acu-Link.com,2013-02-11 20:11:00,
2013-02-11 15:26:00,58.1,44.7,29.82,West,270,7.3,-999.0,61,-99.99,,,0.01,Acu-Link.com,2013-02-11 20:26:00,
2013-02-11 15:42:00,57.7,39.7,29.82,SE,135,2.7,-999.0,51,-99.99,,,0.01,Acu-Link.com,2013-02-11 20:42:00,
2013-02-11 15:57:00,57.0,38.0,29.83,SW,225,4.7,-999.0,49,-99.99,,,0.01,Acu-Link.com,2013-02-11 20:57:00,
2013-02-11 16:12:00,56.5,37.6,29.83,WSW,247,3.7,-999.0,49,-99.99,,,0.01,Acu-Link.com,2013-02-11 21:12:00,
2013-02-11 16:27:00,56.3,37.9,29.83,SSE,157,3.2,-999.0,50,-99.99,,,0.01,Acu-Link.com,2013-02-11 21:27:00,
2013-02-11 16:43:00,56.1,38.7,29.83,WSW,247,2.2,-999.0,52,-99.99,,,0.01,Acu-Link.com,2013-02-11 21:43:00,
2013-02-11 16:58:00,56.3,39.9,29.82,West,270,4.2,-999.0,54,-99.99,,,0.01,Acu-Link.com,2013-02-11 21:58:00,
2013-02-11 17:13:00,55.9,40.4,29.82,SW,225,2.2,-999.0,56,-99.99,,,0.01,Acu-Link.com,2013-02-11 22:13:00,
2013-02-11 17:29:00,55.2,40.7,29.83,West,270,2.7,-999.0,58,-99.99,,,0.01,Acu-Link.com,2013-02-11 22:29:00,
2013-02-11 17:44:00,54.5,41.3,29.83,South,180,1.7,-999.0,61,-99.99,,,0.01,Acu-Link.com,2013-02-11 22:44:00,
2013-02-11 17:59:00,53.2,40.9,29.84,South,180,1.1,-999.0,63,-99.99,,,0.01,Acu-Link.com,2013-02-11 22:59:00,
2013-02-11 18:15:00,52.3,40.1,29.84,SW,225,1.7,-999.0,63,-99.99,,,0.01,Acu-Link.com,2013-02-11 23:15:00,
2013-02-11 18:30:00,51.3,39.5,29.83,SW,225,1.7,-999.0,64,-99.99,,,0.01,Acu-Link.com,2013-02-11 23:30:00,
2013-02-11 18:45:00,50.7,39.4,29.85,SW,225,2.2,-999.0,65,-99.99,,,0.01,Acu-Link.com,2013-02-11 23:45:00,
2013-02-11 19:00:00,50.4,37.9,29.85,WSW,247,1.1,-999.0,62,-99.99,,,0.01,Acu-Link.com,2013-02-12 00:00:00,
2013-02-11 19:16:00,49.6,37.1,29.87,NNE,22,3.2,-999.0,62,-99.99,,,0.01,Acu-Link.com,2013-02-12 00:16:00,
2013-02-11 19:31:00,48.9,36.1,29.86,NW,315,1.1,-999.0,61,-99.99,,,0.01,Acu-Link.com,2013-02-12 00:31:00,
2013-02-11 19:46:00,48.4,36.0,29.87,West,270,0.0,-999.0,62,-99.99,,,0.01,Acu-Link.com,2013-02-12 00:46:00,
2013-02-11 20:02:00,46.9,36.5,29.86,SW,225,1.7,-999.0,67,-99.99,,,0.01,Acu-Link.com,2013-02-12 01:02:00,
2013-02-11 20:17:00,46.0,36.0,29.86,SSW,202,0.0,-999.0,68,-99.99,,,0.01,Acu-Link.com,2013-02-12 01:17:00,
2013-02-11 20:32:00,45.7,35.0,29.86,SW,225,1.7,-999.0,66,-99.99,,,0.01,Acu-Link.com,2013-02-12 01:32:00,
2013-02-11 20:48:00,45.3,33.9,29.86,SW,225,1.7,-999.0,64,-99.99,,,0.01,Acu-Link.com,2013-02-12 01:48:00,
2013-02-11 21:03:00,45.7,33.8,29.86,WSW,247,2.2,-999.0,63,-99.99,,,0.01,Acu-Link.com,2013-02-12 02:03:00,
2013-02-11 21:18:00,45.3,33.5,29.87,WSW,247,1.7,-999.0,63,-99.99,,,0.01,Acu-Link.com,2013-02-12 02:18:00,
2013-02-11 21:34:00,45.7,33.0,29.87,WNW,292,0.0,-999.0,61,-99.99,,,0.01,Acu-Link.com,2013-02-12 02:34:00,
2013-02-11 21:49:00,45.7,32.6,29.88,West,270,2.2,-999.0,60,-99.99,,,0.01,Acu-Link.com,2013-02-12 02:49:00,
2013-02-11 22:04:00,45.5,32.0,29.88,SW,225,0.0,-999.0,59,-99.99,,,0.01,Acu-Link.com,2013-02-12 03:04:00,
2013-02-11 22:19:00,45.7,32.2,29.89,SW,225,2.2,-999.0,59,-99.99,,,0.01,Acu-Link.com,2013-02-12 03:19:00,
2013-02-11 22:35:00,45.9,32.0,29.88,WSW,247,0.0,-999.0,58,-99.99,,,0.01,Acu-Link.com,2013-02-12 03:35:00,
2013-02-11 22:50:00,45.1,31.6,29.87,South,180,2.2,-999.0,59,-99.99,,,0.01,Acu-Link.com,2013-02-12 03:50:00,
2013-02-11 23:05:00,45.0,31.5,29.89,West,270,1.7,-999.0,59,-99.99,,,0.01,Acu-Link.com,2013-02-12 04:05:00,
2013-02-11 23:21:00,45.1,31.2,29.90,West,270,2.2,-999.0,58,-99.99,,,0.01,Acu-Link.com,2013-02-12 04:21:00,
2013-02-11 23:36:00,45.5,30.7,29.90,South,180,0.0,-999.0,56,-99.99,,,0.01,Acu-Link.com,2013-02-12 04:36:00,
2013-02-11 23:51:00,45.0,29.8,29.89,NE,45,0.0,-999.0,55,-99.99,,,0.01,Acu-Link.com,2013-02-12 04:51:00,